T7GPM LFKJ-LIPR
Flight info
| Callsign | T7GPM |
|---|---|
| Flight time | 0h 50m |
| Altitude | 32000 |
| Route | BTA1K BTA L146 MOULE/N0342F190 L146 ELB/N0337F180 DCT IBRID DCT BAGNO BAGNO2F |
| Aircraft | P180/L-SBDGHM1RWXY/LB1 |
Departure
| Time | 2026-05-08 20:44 |
|---|---|
| Airport | Ajaccio Napoléon Bonaparte airport (LFKJ) |
Arrival
| Time | 2026-05-08 21:34 |
|---|---|
| Airport | Federico Fellini International Airport (LIPR) |
| Time | Latitude | Longitude | Altitude | Speed | Heading |
|---|---|---|---|---|---|
| 2026-05-08 20:24 | 41.91853 | 8.79495 | 15 ft | 0 kts | 309° |
| 2026-05-08 20:39 | 41.91845 | 8.79478 | 15 ft | 5 kts | 190° |
| 2026-05-08 20:39 | 41.91824 | 8.79536 | 15 ft | 7 kts | 114° |
| 2026-05-08 20:39 | 41.91804 | 8.79556 | 15 ft | 9 kts | 169° |
| 2026-05-08 20:40 | 41.91757 | 8.79523 | 15 ft | 4 kts | 213° |
| 2026-05-08 20:40 | 41.91682 | 8.79470 | 14 ft | 16 kts | 204° |
| 2026-05-08 20:40 | 41.91573 | 8.79402 | 14 ft | 18 kts | 205° |
| 2026-05-08 20:40 | 41.91452 | 8.79336 | 14 ft | 20 kts | 191° |
| 2026-05-08 20:41 | 41.91320 | 8.79380 | 14 ft | 20 kts | 153° |
| 2026-05-08 20:41 | 41.91273 | 8.79412 | 14 ft | 0 kts | 149° |
| 2026-05-08 20:42 | 41.91267 | 8.79417 | 14 ft | 4 kts | 146° |
| 2026-05-08 20:42 | 41.91237 | 8.79473 | 13 ft | 11 kts | 119° |
| 2026-05-08 20:42 | 41.91239 | 8.79526 | 13 ft | 8 kts | 43° |
| 2026-05-08 20:42 | 41.91248 | 8.79532 | 13 ft | 0 kts | 25° |
| 2026-05-08 20:43 | 41.91325 | 8.79580 | 13 ft | 44 kts | 25° |
| 2026-05-08 20:43 | 41.91791 | 8.79870 | 14 ft | 98 kts | 25° |
| 2026-05-08 20:43 | 41.92507 | 8.80311 | 37 ft | 123 kts | 25° |
| 2026-05-08 20:44 | 41.93265 | 8.80792 | 410 ft | 119 kts | 27° |
| 2026-05-08 20:44 | 41.93862 | 8.81523 | 817 ft | 119 kts | 72° |
| 2026-05-08 20:44 | 41.94201 | 8.82500 | 1257 ft | 118 kts | 38° |
| 2026-05-08 20:44 | 41.94877 | 8.83112 | 1704 ft | 117 kts | 41° |
| 2026-05-08 20:45 | 41.95484 | 8.83833 | 2162 ft | 116 kts | 37° |
| 2026-05-08 20:45 | 41.95910 | 8.84252 | 2468 ft | 114 kts | 39° |
| 2026-05-08 20:45 | 41.96738 | 8.85120 | 3005 ft | 116 kts | 39° |
| 2026-05-08 20:45 | 41.97395 | 8.85785 | 3383 ft | 120 kts | 38° |
| 2026-05-08 20:46 | 41.98068 | 8.86473 | 3744 ft | 123 kts | 38° |
| 2026-05-08 20:46 | 41.98763 | 8.87180 | 4099 ft | 127 kts | 38° |
| 2026-05-08 20:46 | 41.99476 | 8.87904 | 4458 ft | 129 kts | 38° |
| 2026-05-08 20:46 | 42.00201 | 8.88641 | 4824 ft | 131 kts | 37° |
| 2026-05-08 20:47 | 42.00937 | 8.89391 | 5164 ft | 133 kts | 37° |
| 2026-05-08 20:47 | 42.01665 | 8.90132 | 5512 ft | 133 kts | 37° |
| 2026-05-08 20:47 | 42.02413 | 8.90895 | 5869 ft | 138 kts | 37° |
| 2026-05-08 20:47 | 42.03192 | 8.91688 | 6255 ft | 142 kts | 37° |
| 2026-05-08 20:48 | 42.04026 | 8.92536 | 6683 ft | 167 kts | 37° |
| 2026-05-08 20:48 | 42.05075 | 8.93605 | 7165 ft | 214 kts | 37° |
| 2026-05-08 20:48 | 42.06366 | 8.94918 | 7760 ft | 244 kts | 37° |
| 2026-05-08 20:48 | 42.07756 | 8.96339 | 8487 ft | 257 kts | 36° |
| 2026-05-08 20:49 | 42.09207 | 8.97823 | 9223 ft | 267 kts | 36° |
| 2026-05-08 20:49 | 42.10712 | 8.99357 | 9966 ft | 274 kts | 36° |
| 2026-05-08 20:49 | 42.12245 | 9.00925 | 10640 ft | 280 kts | 36° |
| 2026-05-08 20:49 | 42.13806 | 9.02526 | 11326 ft | 284 kts | 36° |
| 2026-05-08 20:50 | 42.15374 | 9.04126 | 12010 ft | 288 kts | 35° |
| 2026-05-08 20:50 | 42.16980 | 9.05764 | 12719 ft | 291 kts | 35° |
| 2026-05-08 20:50 | 42.18570 | 9.07398 | 13345 ft | 278 kts | 34° |
| 2026-05-08 20:50 | 42.20052 | 9.08939 | 13793 ft | 261 kts | 34° |
| 2026-05-08 20:51 | 42.21464 | 9.10378 | 14187 ft | 247 kts | 33° |
| 2026-05-08 20:51 | 42.22823 | 9.11763 | 14588 ft | 242 kts | 33° |
| 2026-05-08 20:51 | 42.24144 | 9.13133 | 14981 ft | 237 kts | 33° |
| 2026-05-08 20:51 | 42.25444 | 9.14458 | 15395 ft | 231 kts | 33° |
| 2026-05-08 20:52 | 42.26711 | 9.15755 | 15806 ft | 226 kts | 33° |
| 2026-05-08 20:52 | 42.27948 | 9.17037 | 16227 ft | 222 kts | 33° |
| 2026-05-08 20:52 | 42.29156 | 9.18278 | 16646 ft | 219 kts | 33° |
| 2026-05-08 20:52 | 42.30361 | 9.19518 | 17077 ft | 216 kts | 32° |
| 2026-05-08 20:53 | 42.31526 | 9.20723 | 17513 ft | 206 kts | 32° |
| 2026-05-08 20:53 | 42.32646 | 9.21875 | 17944 ft | 198 kts | 32° |
| 2026-05-08 20:53 | 42.33711 | 9.22979 | 18380 ft | 187 kts | 31° |
| 2026-05-08 20:53 | 42.34722 | 9.24020 | 18754 ft | 178 kts | 31° |
| 2026-05-08 20:54 | 42.35685 | 9.25017 | 19132 ft | 170 kts | 29° |
| 2026-05-08 20:54 | 42.36600 | 9.25959 | 19514 ft | 160 kts | 29° |
| 2026-05-08 20:54 | 42.37453 | 9.26844 | 19883 ft | 149 kts | 27° |
| 2026-05-08 20:54 | 42.38240 | 9.27658 | 20253 ft | 135 kts | 27° |
| 2026-05-08 20:55 | 42.38936 | 9.28386 | 20570 ft | 121 kts | 24° |
| 2026-05-08 20:55 | 42.39722 | 9.29117 | 20501 ft | 146 kts | 22° |
| 2026-05-08 20:55 | 42.40672 | 9.29876 | 20393 ft | 176 kts | 19° |
| 2026-05-08 20:55 | 42.41626 | 9.30839 | 20851 ft | 175 kts | 43° |
| 2026-05-08 20:56 | 42.42448 | 9.32024 | 21200 ft | 170 kts | 31° |
| 2026-05-08 20:56 | 42.43395 | 9.32949 | 21535 ft | 166 kts | 22° |
| 2026-05-08 20:56 | 42.44330 | 9.33890 | 21866 ft | 169 kts | 30° |
| 2026-05-08 20:56 | 42.45250 | 9.34898 | 22136 ft | 170 kts | 27° |
| 2026-05-08 20:57 | 42.46186 | 9.35871 | 22407 ft | 170 kts | 27° |
| 2026-05-08 20:57 | 42.47164 | 9.36873 | 22682 ft | 188 kts | 27° |
| 2026-05-08 20:57 | 42.48281 | 9.38014 | 22992 ft | 214 kts | 28° |
| 2026-05-08 20:57 | 42.49523 | 9.39312 | 23290 ft | 229 kts | 30° |
| 2026-05-08 20:58 | 42.50762 | 9.40624 | 23577 ft | 227 kts | 29° |
| 2026-05-08 20:58 | 42.52001 | 9.41916 | 23869 ft | 222 kts | 28° |
| 2026-05-08 20:58 | 42.53219 | 9.43179 | 24147 ft | 218 kts | 28° |
| 2026-05-08 20:58 | 42.54419 | 9.44424 | 24420 ft | 217 kts | 28° |
| 2026-05-08 20:59 | 42.55626 | 9.45675 | 24697 ft | 219 kts | 29° |
| 2026-05-08 20:59 | 42.56830 | 9.46966 | 24974 ft | 223 kts | 36° |
| 2026-05-08 20:59 | 42.57795 | 9.48663 | 25242 ft | 233 kts | 58° |
| 2026-05-08 20:59 | 42.58312 | 9.50768 | 25511 ft | 239 kts | 79° |
| 2026-05-08 21:00 | 42.58412 | 9.53037 | 25779 ft | 242 kts | 85° |
| 2026-05-08 21:00 | 42.58656 | 9.55276 | 26050 ft | 243 kts | 75° |
| 2026-05-08 21:00 | 42.59088 | 9.57501 | 26326 ft | 245 kts | 73° |
| 2026-05-08 21:00 | 42.59511 | 9.59776 | 26607 ft | 252 kts | 75° |
| 2026-05-08 21:01 | 42.59916 | 9.62131 | 26896 ft | 259 kts | 75° |
| 2026-05-08 21:01 | 42.60327 | 9.64537 | 27196 ft | 264 kts | 75° |
| 2026-05-08 21:01 | 42.60752 | 9.66987 | 27536 ft | 269 kts | 75° |
| 2026-05-08 21:01 | 42.61184 | 9.69477 | 27893 ft | 273 kts | 76° |
| 2026-05-08 21:02 | 42.61621 | 9.72008 | 28242 ft | 278 kts | 76° |
| 2026-05-08 21:02 | 42.62063 | 9.74581 | 28595 ft | 282 kts | 76° |
| 2026-05-08 21:02 | 42.62513 | 9.77184 | 28950 ft | 285 kts | 76° |
| 2026-05-08 21:02 | 42.62966 | 9.79826 | 29310 ft | 289 kts | 76° |
| 2026-05-08 21:03 | 42.63428 | 9.82510 | 29673 ft | 293 kts | 76° |
| 2026-05-08 21:03 | 42.63885 | 9.85186 | 30035 ft | 296 kts | 76° |
| 2026-05-08 21:03 | 42.64354 | 9.87926 | 30363 ft | 300 kts | 76° |
| 2026-05-08 21:03 | 42.64831 | 9.90700 | 30682 ft | 302 kts | 77° |
| 2026-05-08 21:04 | 42.65307 | 9.93494 | 30995 ft | 305 kts | 77° |
| 2026-05-08 21:04 | 42.65786 | 9.96302 | 31364 ft | 306 kts | 77° |
| 2026-05-08 21:04 | 42.66268 | 9.99134 | 31742 ft | 309 kts | 77° |
| 2026-05-08 21:04 | 42.66590 | 10.01027 | 31999 ft | 310 kts | 77° |
| 2026-05-08 21:05 | 42.67085 | 10.03940 | 32058 ft | 325 kts | 77° |
| 2026-05-08 21:05 | 42.67605 | 10.07012 | 32067 ft | 340 kts | 77° |
| 2026-05-08 21:05 | 42.68150 | 10.10223 | 32071 ft | 358 kts | 77° |
| 2026-05-08 21:05 | 42.68719 | 10.13601 | 32062 ft | 374 kts | 77° |
| 2026-05-08 21:06 | 42.69312 | 10.17115 | 32066 ft | 388 kts | 77° |
| 2026-05-08 21:06 | 42.69925 | 10.20756 | 32056 ft | 402 kts | 77° |
| 2026-05-08 21:06 | 42.70556 | 10.24515 | 32065 ft | 413 kts | 77° |
| 2026-05-08 21:07 | 42.72117 | 10.33587 | 32059 ft | 432 kts | 73° |
| 2026-05-08 21:07 | 42.74170 | 10.39810 | 32056 ft | 436 kts | 58° |
| 2026-05-08 21:08 | 42.77982 | 10.46177 | 32062 ft | 432 kts | 41° |
| 2026-05-08 21:08 | 42.82258 | 10.51944 | 32063 ft | 431 kts | 43° |
| 2026-05-08 21:09 | 42.86480 | 10.57625 | 32049 ft | 423 kts | 41° |
| 2026-05-08 21:09 | 42.90630 | 10.63257 | 32051 ft | 420 kts | 42° |
| 2026-05-08 21:10 | 42.94766 | 10.68842 | 32062 ft | 417 kts | 42° |
| 2026-05-08 21:10 | 42.98842 | 10.74393 | 32066 ft | 417 kts | 42° |
| 2026-05-08 21:11 | 43.02971 | 10.80004 | 32072 ft | 418 kts | 42° |
| 2026-05-08 21:11 | 43.07088 | 10.85619 | 32073 ft | 418 kts | 42° |
| 2026-05-08 21:12 | 43.11198 | 10.91236 | 32084 ft | 418 kts | 42° |
| 2026-05-08 21:12 | 43.15317 | 10.96875 | 32077 ft | 417 kts | 43° |
| 2026-05-08 21:13 | 43.19417 | 11.02495 | 32021 ft | 418 kts | 42° |
| 2026-05-08 21:13 | 43.21498 | 11.05354 | 31472 ft | 430 kts | 43° |
| 2026-05-08 21:13 | 43.23616 | 11.08267 | 30859 ft | 441 kts | 42° |
| 2026-05-08 21:13 | 43.25765 | 11.11227 | 30236 ft | 433 kts | 43° |
| 2026-05-08 21:14 | 43.27869 | 11.14134 | 29578 ft | 425 kts | 42° |
| 2026-05-08 21:14 | 43.29933 | 11.16982 | 28980 ft | 417 kts | 42° |
| 2026-05-08 21:14 | 43.31964 | 11.19781 | 28387 ft | 409 kts | 42° |
| 2026-05-08 21:14 | 43.33955 | 11.22533 | 27804 ft | 402 kts | 42° |
| 2026-05-08 21:15 | 43.35931 | 11.25271 | 26945 ft | 403 kts | 42° |
| 2026-05-08 21:15 | 43.37869 | 11.27947 | 26367 ft | 397 kts | 42° |
| 2026-05-08 21:15 | 43.39786 | 11.30612 | 25819 ft | 390 kts | 42° |
| 2026-05-08 21:15 | 43.41693 | 11.33261 | 25276 ft | 385 kts | 42° |
| 2026-05-08 21:16 | 43.43569 | 11.35860 | 24743 ft | 380 kts | 42° |
| 2026-05-08 21:16 | 43.45419 | 11.38435 | 24214 ft | 376 kts | 42° |
| 2026-05-08 21:16 | 43.47254 | 11.40988 | 23683 ft | 372 kts | 42° |
| 2026-05-08 21:16 | 43.49252 | 11.43162 | 23120 ft | 361 kts | 29° |
| 2026-05-08 21:17 | 43.51365 | 11.44964 | 22619 ft | 354 kts | 30° |
| 2026-05-08 21:17 | 43.53391 | 11.46869 | 22134 ft | 349 kts | 33° |
| 2026-05-08 21:17 | 43.55357 | 11.48799 | 21654 ft | 344 kts | 32° |
| 2026-05-08 21:17 | 43.57338 | 11.50610 | 21167 ft | 339 kts | 30° |
| 2026-05-08 21:18 | 43.59277 | 11.52347 | 20709 ft | 335 kts | 31° |
| 2026-05-08 21:18 | 43.61192 | 11.54151 | 20241 ft | 331 kts | 32° |
| 2026-05-08 21:18 | 43.63080 | 11.55943 | 19775 ft | 328 kts | 32° |
| 2026-05-08 21:18 | 43.64970 | 11.57680 | 19326 ft | 325 kts | 32° |
| 2026-05-08 21:19 | 43.66843 | 11.59412 | 18872 ft | 323 kts | 32° |
| 2026-05-08 21:19 | 43.68695 | 11.61153 | 18427 ft | 320 kts | 33° |
| 2026-05-08 21:19 | 43.70535 | 11.62872 | 17944 ft | 317 kts | 32° |
| 2026-05-08 21:19 | 43.72355 | 11.64563 | 17500 ft | 313 kts | 33° |
| 2026-05-08 21:20 | 43.74151 | 11.66244 | 17065 ft | 310 kts | 33° |
| 2026-05-08 21:20 | 43.75904 | 11.67884 | 16640 ft | 307 kts | 32° |
| 2026-05-08 21:20 | 43.77668 | 11.69538 | 16210 ft | 305 kts | 32° |
| 2026-05-08 21:20 | 43.79430 | 11.71181 | 15785 ft | 304 kts | 32° |
| 2026-05-08 21:21 | 43.81179 | 11.72823 | 15368 ft | 303 kts | 33° |
| 2026-05-08 21:21 | 43.82921 | 11.74462 | 14923 ft | 302 kts | 33° |
| 2026-05-08 21:21 | 43.84662 | 11.76088 | 14513 ft | 301 kts | 33° |
| 2026-05-08 21:21 | 43.86391 | 11.77715 | 14098 ft | 299 kts | 33° |
| 2026-05-08 21:22 | 43.88097 | 11.79324 | 13586 ft | 300 kts | 33° |
| 2026-05-08 21:22 | 43.89649 | 11.81225 | 13138 ft | 298 kts | 52° |
| 2026-05-08 21:22 | 43.90775 | 11.83621 | 12733 ft | 295 kts | 58° |
| 2026-05-08 21:22 | 43.91931 | 11.85968 | 12315 ft | 293 kts | 53° |
| 2026-05-08 21:23 | 43.93147 | 11.88220 | 11906 ft | 291 kts | 53° |
| 2026-05-08 21:23 | 43.94306 | 11.90510 | 11502 ft | 289 kts | 56° |
| 2026-05-08 21:23 | 43.95434 | 11.92800 | 11097 ft | 287 kts | 55° |
| 2026-05-08 21:23 | 43.96576 | 11.95012 | 11008 ft | 275 kts | 54° |
| 2026-05-08 21:24 | 43.97664 | 11.97140 | 11001 ft | 264 kts | 55° |
| 2026-05-08 21:24 | 43.98682 | 11.99173 | 10998 ft | 256 kts | 55° |
| 2026-05-08 21:24 | 43.99695 | 12.01177 | 10993 ft | 251 kts | 55° |
| 2026-05-08 21:24 | 44.00696 | 12.03149 | 10988 ft | 247 kts | 55° |
| 2026-05-08 21:25 | 44.01678 | 12.05093 | 10990 ft | 245 kts | 55° |
| 2026-05-08 21:25 | 44.02651 | 12.07019 | 10987 ft | 242 kts | 55° |
| 2026-05-08 21:25 | 44.03615 | 12.08929 | 10987 ft | 241 kts | 55° |
| 2026-05-08 21:25 | 44.04594 | 12.10867 | 10978 ft | 248 kts | 55° |
| 2026-05-08 21:26 | 44.05614 | 12.12892 | 10733 ft | 262 kts | 55° |
| 2026-05-08 21:26 | 44.06681 | 12.15013 | 10470 ft | 272 kts | 55° |
| 2026-05-08 21:26 | 44.07781 | 12.17193 | 10210 ft | 278 kts | 55° |
| 2026-05-08 21:26 | 44.08896 | 12.19411 | 9969 ft | 281 kts | 55° |
| 2026-05-08 21:27 | 44.10024 | 12.21659 | 9560 ft | 286 kts | 55° |
| 2026-05-08 21:27 | 44.11181 | 12.23958 | 8998 ft | 294 kts | 55° |
| 2026-05-08 21:27 | 44.12382 | 12.26265 | 8193 ft | 304 kts | 51° |
| 2026-05-08 21:27 | 44.13789 | 12.28500 | 7380 ft | 308 kts | 49° |
| 2026-05-08 21:28 | 44.15161 | 12.30778 | 6585 ft | 303 kts | 52° |
| 2026-05-08 21:28 | 44.16396 | 12.33021 | 6001 ft | 282 kts | 54° |
| 2026-05-08 21:28 | 44.17205 | 12.35401 | 5515 ft | 253 kts | 80° |
| 2026-05-08 21:28 | 44.16930 | 12.37585 | 5026 ft | 219 kts | 122° |
| 2026-05-08 21:29 | 44.15879 | 12.38989 | 4543 ft | 205 kts | 143° |
| 2026-05-08 21:29 | 44.14843 | 12.40311 | 4083 ft | 200 kts | 133° |
| 2026-05-08 21:29 | 44.14021 | 12.41858 | 3629 ft | 197 kts | 124° |
| 2026-05-08 21:29 | 44.13311 | 12.43293 | 3120 ft | 166 kts | 128° |
| 2026-05-08 21:30 | 44.12519 | 12.44462 | 2598 ft | 164 kts | 139° |
| 2026-05-08 21:30 | 44.11649 | 12.45529 | 2183 ft | 167 kts | 140° |
| 2026-05-08 21:30 | 44.10793 | 12.46531 | 1997 ft | 155 kts | 141° |
| 2026-05-08 21:30 | 44.09980 | 12.47476 | 1750 ft | 151 kts | 139° |
| 2026-05-08 21:31 | 44.09225 | 12.48475 | 1549 ft | 148 kts | 136° |
| 2026-05-08 21:31 | 44.08518 | 12.49497 | 1415 ft | 145 kts | 133° |
| 2026-05-08 21:31 | 44.07884 | 12.50583 | 1295 ft | 145 kts | 127° |
| 2026-05-08 21:31 | 44.07280 | 12.51709 | 1124 ft | 147 kts | 126° |
| 2026-05-08 21:32 | 44.06685 | 12.52853 | 990 ft | 145 kts | 128° |
| 2026-05-08 21:32 | 44.06041 | 12.53969 | 764 ft | 149 kts | 128° |
| 2026-05-08 21:32 | 44.05418 | 12.55106 | 625 ft | 147 kts | 128° |
| 2026-05-08 21:32 | 44.04803 | 12.56212 | 524 ft | 145 kts | 129° |
| 2026-05-08 21:33 | 44.04178 | 12.57331 | 373 ft | 147 kts | 127° |
| 2026-05-08 21:33 | 44.03557 | 12.58461 | 252 ft | 147 kts | 128° |
| 2026-05-08 21:33 | 44.02929 | 12.59576 | 109 ft | 142 kts | 127° |
| 2026-05-08 21:33 | 44.02348 | 12.60605 | 42 ft | 117 kts | 126° |
| 2026-05-08 21:34 | 44.01960 | 12.61308 | 40 ft | 55 kts | 128° |
| 2026-05-08 21:34 | 44.01819 | 12.61565 | 42 ft | 10 kts | 105° |
| 2026-05-08 21:34 | 44.01879 | 12.61657 | 43 ft | 16 kts | 37° |
| 2026-05-08 21:34 | 44.01901 | 12.61681 | 43 ft | 1 kts | 38° |
| 2026-05-08 21:35 | 44.01905 | 12.61686 | 43 ft | 0 kts | 38° |
| 2026-05-08 21:35 | 44.01967 | 12.61752 | 43 ft | 15 kts | 38° |
| 2026-05-08 21:35 | 44.02055 | 12.61846 | 44 ft | 17 kts | 38° |
| 2026-05-08 21:35 | 44.02136 | 12.61936 | 44 ft | 11 kts | 54° |
| 2026-05-08 21:36 | 44.02140 | 12.61984 | 44 ft | 0 kts | 95° |